sensor_id;sensor_type;location;lat;lon;timestamp;P1;durP1;ratioP1;P2;durP2;ratioP2
25962;SDS011;13760;52.588;13.406;2022-11-15T00:00:27;68.82;;;42.25;;
25962;SDS011;13760;52.588;13.406;2022-11-15T00:02:53;75.40;;;44.10;;
25962;SDS011;13760;52.588;13.406;2022-11-15T00:05:19;76.60;;;44.90;;
25962;SDS011;13760;52.588;13.406;2022-11-15T00:07:44;74.78;;;45.38;;
25962;SDS011;13760;52.588;13.406;2022-11-15T00:10:11;75.72;;;44.70;;
25962;SDS011;13760;52.588;13.406;2022-11-15T00:12:37;74.30;;;45.08;;
25962;SDS011;13760;52.588;13.406;2022-11-15T00:15:02;76.25;;;45.63;;
25962;SDS011;13760;52.588;13.406;2022-11-15T00:17:28;79.68;;;45.17;;
25962;SDS011;13760;52.588;13.406;2022-11-15T00:19:54;76.93;;;44.05;;
25962;SDS011;13760;52.588;13.406;2022-11-15T00:22:20;74.78;;;43.90;;
25962;SDS011;13760;52.588;13.406;2022-11-15T00:24:46;69.88;;;42.55;;
25962;SDS011;13760;52.588;13.406;2022-11-15T00:27:11;78.95;;;44.58;;
25962;SDS011;13760;52.588;13.406;2022-11-15T00:29:36;76.00;;;42.25;;
25962;SDS011;13760;52.588;13.406;2022-11-15T00:32:03;71.13;;;43.20;;
25962;SDS011;13760;52.588;13.406;2022-11-15T00:34:29;78.55;;;44.53;;
25962;SDS011;13760;52.588;13.406;2022-11-15T00:36:55;71.70;;;43.90;;
25962;SDS011;13760;52.588;13.406;2022-11-15T00:39:21;68.55;;;43.25;;
25962;SDS011;13760;52.588;13.406;2022-11-15T00:41:46;74.93;;;44.42;;
25962;SDS011;13760;52.588;13.406;2022-11-15T00:44:12;77.50;;;45.10;;
25962;SDS011;13760;52.588;13.406;2022-11-15T00:46:37;70.80;;;42.80;;
25962;SDS011;13760;52.588;13.406;2022-11-15T00:49:03;76.45;;;45.67;;
25962;SDS011;13760;52.588;13.406;2022-11-15T00:51:28;76.63;;;44.30;;
25962;SDS011;13760;52.588;13.406;2022-11-15T00:53:54;70.75;;;43.83;;
25962;SDS011;13760;52.588;13.406;2022-11-15T00:56:19;78.30;;;44.58;;
25962;SDS011;13760;52.588;13.406;2022-11-15T00:58:44;74.25;;;44.53;;
25962;SDS011;13760;52.588;13.406;2022-11-15T01:01:11;74.53;;;43.92;;
25962;SDS011;13760;52.588;13.406;2022-11-15T01:03:39;75.82;;;45.90;;
25962;SDS011;13760;52.588;13.406;2022-11-15T01:06:05;75.80;;;44.10;;
25962;SDS011;13760;52.588;13.406;2022-11-15T01:08:32;71.75;;;43.10;;
25962;SDS011;13760;52.588;13.406;2022-11-15T01:11:01;77.50;;;45.63;;
25962;SDS011;13760;52.588;13.406;2022-11-15T01:13:31;73.53;;;43.85;;
25962;SDS011;13760;52.588;13.406;2022-11-15T01:15:58;73.95;;;43.45;;
25962;SDS011;13760;52.588;13.406;2022-11-15T01:18:24;73.55;;;43.50;;
25962;SDS011;13760;52.588;13.406;2022-11-15T01:20:49;71.22;;;43.05;;
25962;SDS011;13760;52.588;13.406;2022-11-15T01:23:15;73.88;;;43.63;;
25962;SDS011;13760;52.588;13.406;2022-11-15T01:25:41;73.95;;;44.30;;
25962;SDS011;13760;52.588;13.406;2022-11-15T01:28:06;78.90;;;45.72;;
25962;SDS011;13760;52.588;13.406;2022-11-15T01:30:32;76.80;;;45.85;;
25962;SDS011;13760;52.588;13.406;2022-11-15T01:32:58;75.35;;;43.70;;
25962;SDS011;13760;52.588;13.406;2022-11-15T01:35:23;75.43;;;44.50;;
25962;SDS011;13760;52.588;13.406;2022-11-15T01:37:49;72.45;;;43.67;;
25962;SDS011;13760;52.588;13.406;2022-11-15T01:40:14;76.70;;;45.75;;
25962;SDS011;13760;52.588;13.406;2022-11-15T01:42:40;78.32;;;45.97;;
25962;SDS011;13760;52.588;13.406;2022-11-15T01:45:05;82.25;;;45.83;;
25962;SDS011;13760;52.588;13.406;2022-11-15T01:47:38;74.85;;;44.47;;
25962;SDS011;13760;52.588;13.406;2022-11-15T01:50:12;58.33;;;33.15;;
25962;SDS011;13760;52.588;13.406;2022-11-15T01:52:41;75.43;;;43.08;;
25962;SDS011;13760;52.588;13.406;2022-11-15T01:57:36;77.10;;;44.35;;
25962;SDS011;13760;52.588;13.406;2022-11-15T02:00:03;73.53;;;43.35;;
25962;SDS011;13760;52.588;13.406;2022-11-15T02:02:30;77.65;;;44.05;;
25962;SDS011;13760;52.588;13.406;2022-11-15T02:04:57;75.70;;;43.58;;
25962;SDS011;13760;52.588;13.406;2022-11-15T02:07:23;74.82;;;43.92;;
25962;SDS011;13760;52.588;13.406;2022-11-15T02:09:49;76.97;;;42.67;;
25962;SDS011;13760;52.588;13.406;2022-11-15T02:12:18;71.22;;;42.53;;
25962;SDS011;13760;52.588;13.406;2022-11-15T02:14:47;73.88;;;41.70;;
25962;SDS011;13760;52.588;13.406;2022-11-15T02:20:15;55.55;;;32.35;;
25962;SDS011;13760;52.588;13.406;2022-11-15T02:28:56;73.85;;;42.78;;
25962;SDS011;13760;52.588;13.406;2022-11-15T02:31:48;73.30;;;41.85;;
25962;SDS011;13760;52.588;13.406;2022-11-15T02:37:03;69.75;;;40.78;;
25962;SDS011;13760;52.588;13.406;2022-11-15T02:39:53;72.82;;;42.60;;
25962;SDS011;13760;52.588;13.406;2022-11-15T02:42:53;66.20;;;39.55;;
25962;SDS011;13760;52.588;13.406;2022-11-15T02:45:48;67.25;;;40.22;;
25962;SDS011;13760;52.588;13.406;2022-11-15T02:48:19;75.43;;;42.78;;
25962;SDS011;13760;52.588;13.406;2022-11-15T02:50:47;74.75;;;41.72;;
25962;SDS011;13760;52.588;13.406;2022-11-15T02:53:14;70.65;;;43.05;;
25962;SDS011;13760;52.588;13.406;2022-11-15T02:55:49;72.30;;;42.42;;
25962;SDS011;13760;52.588;13.406;2022-11-15T03:00:49;73.13;;;41.60;;
25962;SDS011;13760;52.588;13.406;2022-11-15T03:03:36;75.15;;;42.95;;
25962;SDS011;13760;52.588;13.406;2022-11-15T03:09:51;71.80;;;42.58;;
25962;SDS011;13760;52.588;13.406;2022-11-15T03:11:58;67.15;;;39.65;;
25962;SDS011;13760;52.588;13.406;2022-11-15T03:14:29;71.82;;;41.50;;
25962;SDS011;13760;52.588;13.406;2022-11-15T03:19:53;74.70;;;42.67;;
25962;SDS011;13760;52.588;13.406;2022-11-15T03:22:21;67.93;;;40.15;;
25962;SDS011;13760;52.588;13.406;2022-11-15T03:24:53;72.53;;;42.47;;
25962;SDS011;13760;52.588;13.406;2022-11-15T03:27:24;76.40;;;43.28;;
25962;SDS011;13760;52.588;13.406;2022-11-15T03:29:55;67.80;;;40.70;;
25962;SDS011;13760;52.588;13.406;2022-11-15T03:32:31;69.07;;;41.00;;
25962;SDS011;13760;52.588;13.406;2022-11-15T03:35:03;70.90;;;40.50;;
25962;SDS011;13760;52.588;13.406;2022-11-15T03:40:16;72.20;;;41.75;;
25962;SDS011;13760;52.588;13.406;2022-11-15T03:45:35;72.47;;;40.28;;
25962;SDS011;13760;52.588;13.406;2022-11-15T03:48:18;73.50;;;42.35;;
25962;SDS011;13760;52.588;13.406;2022-11-15T03:50:49;75.05;;;43.25;;
25962;SDS011;13760;52.588;13.406;2022-11-15T03:53:15;74.47;;;41.78;;
25962;SDS011;13760;52.588;13.406;2022-11-15T03:55:41;75.25;;;43.45;;
25962;SDS011;13760;52.588;13.406;2022-11-15T03:58:06;71.80;;;41.13;;
25962;SDS011;13760;52.588;13.406;2022-11-15T04:00:32;75.57;;;42.78;;
25962;SDS011;13760;52.588;13.406;2022-11-15T04:02:58;75.40;;;42.50;;
25962;SDS011;13760;52.588;13.406;2022-11-15T04:05:23;76.97;;;43.45;;
25962;SDS011;13760;52.588;13.406;2022-11-15T04:07:49;72.50;;;42.50;;
25962;SDS011;13760;52.588;13.406;2022-11-15T04:10:14;80.57;;;42.88;;
25962;SDS011;13760;52.588;13.406;2022-11-15T04:12:41;70.47;;;41.10;;
25962;SDS011;13760;52.588;13.406;2022-11-15T04:15:12;77.25;;;43.30;;
25962;SDS011;13760;52.588;13.406;2022-11-15T04:17:46;78.25;;;42.05;;
25962;SDS011;13760;52.588;13.406;2022-11-15T04:20:23;78.28;;;41.55;;
25962;SDS011;13760;52.588;13.406;2022-11-15T04:23:10;79.88;;;43.63;;
25962;SDS011;13760;52.588;13.406;2022-11-15T04:25:56;76.25;;;42.75;;
25962;SDS011;13760;52.588;13.406;2022-11-15T04:28:24;80.82;;;43.53;;
25962;SDS011;13760;52.588;13.406;2022-11-15T04:30:50;75.18;;;43.03;;
25962;SDS011;13760;52.588;13.406;2022-11-15T04:33:15;79.35;;;42.47;;
25962;SDS011;13760;52.588;13.406;2022-11-15T04:35:41;72.85;;;40.65;;
25962;SDS011;13760;52.588;13.406;2022-11-15T04:38:08;73.20;;;41.25;;
25962;SDS011;13760;52.588;13.406;2022-11-15T04:40:35;73.68;;;40.88;;
25962;SDS011;13760;52.588;13.406;2022-11-15T04:43:01;70.32;;;41.33;;
25962;SDS011;13760;52.588;13.406;2022-11-15T04:45:28;73.38;;;40.47;;
25962;SDS011;13760;52.588;13.406;2022-11-15T04:47:53;70.68;;;41.30;;
25962;SDS011;13760;52.588;13.406;2022-11-15T04:50:19;69.75;;;40.65;;
25962;SDS011;13760;52.588;13.406;2022-11-15T04:52:50;73.13;;;42.05;;
25962;SDS011;13760;52.588;13.406;2022-11-15T04:55:17;75.95;;;41.60;;
25962;SDS011;13760;52.588;13.406;2022-11-15T04:57:43;78.05;;;42.00;;
25962;SDS011;13760;52.588;13.406;2022-11-15T05:00:11;81.22;;;45.38;;
25962;SDS011;13760;52.588;13.406;2022-11-15T05:02:38;82.10;;;44.25;;
25962;SDS011;13760;52.588;13.406;2022-11-15T05:05:23;79.30;;;44.30;;
25962;SDS011;13760;52.588;13.406;2022-11-15T05:07:49;82.30;;;46.85;;
25962;SDS011;13760;52.588;13.406;2022-11-15T05:10:15;91.20;;;50.90;;
25962;SDS011;13760;52.588;13.406;2022-11-15T05:12:40;84.35;;;51.00;;
25962;SDS011;13760;52.588;13.406;2022-11-15T05:15:06;85.80;;;49.40;;
25962;SDS011;13760;52.588;13.406;2022-11-15T05:17:32;83.95;;;46.10;;
25962;SDS011;13760;52.588;13.406;2022-11-15T05:19:57;82.50;;;46.88;;
25962;SDS011;13760;52.588;13.406;2022-11-15T05:22:23;76.57;;;45.80;;
25962;SDS011;13760;52.588;13.406;2022-11-15T05:24:48;79.00;;;45.40;;
25962;SDS011;13760;52.588;13.406;2022-11-15T05:27:14;78.00;;;44.08;;
25962;SDS011;13760;52.588;13.406;2022-11-15T05:29:39;104.90;;;52.92;;
25962;SDS011;13760;52.588;13.406;2022-11-15T05:32:05;118.07;;;58.55;;
25962;SDS011;13760;52.588;13.406;2022-11-15T05:34:33;113.40;;;56.95;;
25962;SDS011;13760;52.588;13.406;2022-11-15T05:36:59;109.90;;;54.78;;
25962;SDS011;13760;52.588;13.406;2022-11-15T05:39:25;103.93;;;55.05;;
25962;SDS011;13760;52.588;13.406;2022-11-15T05:41:54;99.97;;;54.58;;
25962;SDS011;13760;52.588;13.406;2022-11-15T05:44:27;89.97;;;49.83;;
25962;SDS011;13760;52.588;13.406;2022-11-15T05:46:53;88.30;;;48.88;;
25962;SDS011;13760;52.588;13.406;2022-11-15T05:49:22;89.60;;;47.15;;
25962;SDS011;13760;52.588;13.406;2022-11-15T05:51:51;79.25;;;46.35;;
25962;SDS011;13760;52.588;13.406;2022-11-15T05:54:18;85.35;;;46.17;;
25962;SDS011;13760;52.588;13.406;2022-11-15T05:56:46;75.32;;;44.10;;
25962;SDS011;13760;52.588;13.406;2022-11-15T05:59:11;80.60;;;43.00;;
25962;SDS011;13760;52.588;13.406;2022-11-15T06:01:37;80.05;;;43.70;;
25962;SDS011;13760;52.588;13.406;2022-11-15T06:04:04;84.03;;;43.17;;
25962;SDS011;13760;52.588;13.406;2022-11-15T06:06:29;78.22;;;43.30;;
25962;SDS011;13760;52.588;13.406;2022-11-15T06:08:55;73.85;;;41.40;;
25962;SDS011;13760;52.588;13.406;2022-11-15T06:11:21;78.30;;;41.35;;
25962;SDS011;13760;52.588;13.406;2022-11-15T06:13:46;72.05;;;40.60;;
25962;SDS011;13760;52.588;13.406;2022-11-15T06:16:12;72.10;;;40.90;;
25962;SDS011;13760;52.588;13.406;2022-11-15T06:18:37;77.80;;;42.88;;
25962;SDS011;13760;52.588;13.406;2022-11-15T06:21:03;77.35;;;41.47;;
25962;SDS011;13760;52.588;13.406;2022-11-15T06:23:33;81.15;;;42.00;;
25962;SDS011;13760;52.588;13.406;2022-11-15T06:26:02;74.50;;;42.38;;
25962;SDS011;13760;52.588;13.406;2022-11-15T06:28:30;74.28;;;41.95;;
25962;SDS011;13760;52.588;13.406;2022-11-15T06:31:06;70.93;;;41.13;;
25962;SDS011;13760;52.588;13.406;2022-11-15T06:33:33;83.68;;;43.22;;
25962;SDS011;13760;52.588;13.406;2022-11-15T06:36:05;79.40;;;40.67;;
25962;SDS011;13760;52.588;13.406;2022-11-15T06:38:32;74.35;;;40.08;;
25962;SDS011;13760;52.588;13.406;2022-11-15T06:41:05;72.78;;;41.40;;
25962;SDS011;13760;52.588;13.406;2022-11-15T06:43:32;75.93;;;41.67;;
25962;SDS011;13760;52.588;13.406;2022-11-15T06:46:07;74.20;;;42.17;;
25962;SDS011;13760;52.588;13.406;2022-11-15T06:48:33;76.22;;;42.35;;
25962;SDS011;13760;52.588;13.406;2022-11-15T06:51:00;72.78;;;40.72;;
25962;SDS011;13760;52.588;13.406;2022-11-15T06:53:27;74.97;;;41.72;;
25962;SDS011;13760;52.588;13.406;2022-11-15T06:56:03;75.70;;;42.28;;
25962;SDS011;13760;52.588;13.406;2022-11-15T06:58:30;86.50;;;43.35;;
25962;SDS011;13760;52.588;13.406;2022-11-15T07:01:06;76.90;;;42.20;;
25962;SDS011;13760;52.588;13.406;2022-11-15T07:03:37;81.65;;;44.40;;
25962;SDS011;13760;52.588;13.406;2022-11-15T07:06:04;93.40;;;47.10;;
25962;SDS011;13760;52.588;13.406;2022-11-15T07:08:29;84.05;;;46.13;;
25962;SDS011;13760;52.588;13.406;2022-11-15T07:10:59;82.95;;;45.47;;
25962;SDS011;13760;52.588;13.406;2022-11-15T07:13:26;87.47;;;45.95;;
25962;SDS011;13760;52.588;13.406;2022-11-15T07:15:52;81.47;;;44.42;;
25962;SDS011;13760;52.588;13.406;2022-11-15T07:18:18;90.93;;;49.78;;
25962;SDS011;13760;52.588;13.406;2022-11-15T07:20:44;99.90;;;52.85;;
25962;SDS011;13760;52.588;13.406;2022-11-15T07:23:09;92.43;;;50.92;;
25962;SDS011;13760;52.588;13.406;2022-11-15T07:25:35;84.20;;;48.38;;
25962;SDS011;13760;52.588;13.406;2022-11-15T07:28:01;81.93;;;45.70;;
25962;SDS011;13760;52.588;13.406;2022-11-15T07:30:28;85.50;;;48.10;;
25962;SDS011;13760;52.588;13.406;2022-11-15T07:32:58;82.47;;;47.30;;
25962;SDS011;13760;52.588;13.406;2022-11-15T07:35:27;89.68;;;51.25;;
25962;SDS011;13760;52.588;13.406;2022-11-15T07:37:56;87.18;;;50.00;;
25962;SDS011;13760;52.588;13.406;2022-11-15T07:40:24;87.90;;;51.55;;
25962;SDS011;13760;52.588;13.406;2022-11-15T07:42:50;88.38;;;49.83;;
25962;SDS011;13760;52.588;13.406;2022-11-15T07:45:22;86.68;;;49.50;;
25962;SDS011;13760;52.588;13.406;2022-11-15T07:47:50;91.32;;;49.20;;
25962;SDS011;13760;52.588;13.406;2022-11-15T07:50:16;92.05;;;50.42;;
25962;SDS011;13760;52.588;13.406;2022-11-15T07:52:42;90.53;;;48.65;;
25962;SDS011;13760;52.588;13.406;2022-11-15T07:55:08;89.90;;;49.08;;
25962;SDS011;13760;52.588;13.406;2022-11-15T07:57:35;93.15;;;51.17;;
25962;SDS011;13760;52.588;13.406;2022-11-15T08:00:06;85.75;;;48.80;;
25962;SDS011;13760;52.588;13.406;2022-11-15T08:02:32;86.93;;;48.58;;
25962;SDS011;13760;52.588;13.406;2022-11-15T08:04:57;91.03;;;51.72;;
25962;SDS011;13760;52.588;13.406;2022-11-15T08:07:24;90.28;;;50.67;;
25962;SDS011;13760;52.588;13.406;2022-11-15T08:09:49;87.70;;;49.67;;
25962;SDS011;13760;52.588;13.406;2022-11-15T08:12:15;86.20;;;48.97;;
25962;SDS011;13760;52.588;13.406;2022-11-15T08:14:40;88.18;;;48.83;;
25962;SDS011;13760;52.588;13.406;2022-11-15T08:17:06;82.15;;;47.78;;
25962;SDS011;13760;52.588;13.406;2022-11-15T08:19:31;89.70;;;47.92;;
25962;SDS011;13760;52.588;13.406;2022-11-15T08:21:57;83.43;;;47.60;;
25962;SDS011;13760;52.588;13.406;2022-11-15T08:24:22;91.95;;;48.78;;
25962;SDS011;13760;52.588;13.406;2022-11-15T08:26:48;94.30;;;51.42;;
25962;SDS011;13760;52.588;13.406;2022-11-15T08:29:13;89.60;;;50.80;;
25962;SDS011;13760;52.588;13.406;2022-11-15T08:31:39;86.18;;;49.20;;
25962;SDS011;13760;52.588;13.406;2022-11-15T08:34:05;83.20;;;47.65;;
25962;SDS011;13760;52.588;13.406;2022-11-15T08:36:31;92.32;;;50.25;;
25962;SDS011;13760;52.588;13.406;2022-11-15T08:38:56;84.93;;;47.50;;
25962;SDS011;13760;52.588;13.406;2022-11-15T08:41:26;77.82;;;46.08;;
25962;SDS011;13760;52.588;13.406;2022-11-15T08:43:55;75.93;;;44.22;;
25962;SDS011;13760;52.588;13.406;2022-11-15T08:46:21;85.95;;;45.22;;
25962;SDS011;13760;52.588;13.406;2022-11-15T08:48:47;72.28;;;42.03;;
25962;SDS011;13760;52.588;13.406;2022-11-15T08:51:12;70.50;;;41.17;;
25962;SDS011;13760;52.588;13.406;2022-11-15T08:53:38;75.97;;;44.38;;
25962;SDS011;13760;52.588;13.406;2022-11-15T08:56:06;84.13;;;45.38;;
25962;SDS011;13760;52.588;13.406;2022-11-15T08:58:33;71.53;;;42.22;;
25962;SDS011;13760;52.588;13.406;2022-11-15T09:01:00;72.07;;;42.03;;
25962;SDS011;13760;52.588;13.406;2022-11-15T09:03:25;66.25;;;41.08;;
25962;SDS011;13760;52.588;13.406;2022-11-15T09:05:57;70.38;;;40.47;;
25962;SDS011;13760;52.588;13.406;2022-11-15T09:08:24;64.18;;;39.40;;
25962;SDS011;13760;52.588;13.406;2022-11-15T09:10:53;65.45;;;38.58;;
25962;SDS011;13760;52.588;13.406;2022-11-15T09:13:19;65.63;;;37.92;;
25962;SDS011;13760;52.588;13.406;2022-11-15T09:15:44;63.13;;;39.60;;
25962;SDS011;13760;52.588;13.406;2022-11-15T09:18:10;58.60;;;35.10;;
25962;SDS011;13760;52.588;13.406;2022-11-15T09:20:35;54.28;;;36.08;;
25962;SDS011;13760;52.588;13.406;2022-11-15T09:23:01;56.50;;;34.58;;
25962;SDS011;13760;52.588;13.406;2022-11-15T09:25:28;52.22;;;33.40;;
25962;SDS011;13760;52.588;13.406;2022-11-15T09:27:54;54.30;;;33.50;;
25962;SDS011;13760;52.588;13.406;2022-11-15T09:30:19;51.03;;;32.83;;
25962;SDS011;13760;52.588;13.406;2022-11-15T09:32:45;49.42;;;31.33;;
25962;SDS011;13760;52.588;13.406;2022-11-15T09:35:10;48.38;;;30.98;;
25962;SDS011;13760;52.588;13.406;2022-11-15T09:37:36;53.30;;;32.70;;
25962;SDS011;13760;52.588;13.406;2022-11-15T09:40:02;47.58;;;31.08;;
25962;SDS011;13760;52.588;13.406;2022-11-15T09:48:00;45.88;;;29.55;;
25962;SDS011;13760;52.588;13.406;2022-11-15T09:50:31;43.45;;;30.13;;
25962;SDS011;13760;52.588;13.406;2022-11-15T09:53:01;52.83;;;30.40;;
25962;SDS011;13760;52.588;13.406;2022-11-15T09:55:32;48.72;;;30.10;;
25962;SDS011;13760;52.588;13.406;2022-11-15T09:58:10;45.15;;;29.75;;
25962;SDS011;13760;52.588;13.406;2022-11-15T10:00:57;51.22;;;31.02;;
25962;SDS011;13760;52.588;13.406;2022-11-15T10:03:29;41.85;;;27.90;;
25962;SDS011;13760;52.588;13.406;2022-11-15T10:06:00;41.83;;;27.92;;
25962;SDS011;13760;52.588;13.406;2022-11-15T10:08:33;40.90;;;26.98;;
25962;SDS011;13760;52.588;13.406;2022-11-15T10:11:21;44.33;;;28.48;;
25962;SDS011;13760;52.588;13.406;2022-11-15T10:13:49;39.83;;;27.10;;
25962;SDS011;13760;52.588;13.406;2022-11-15T10:16:37;46.63;;;27.73;;
25962;SDS011;13760;52.588;13.406;2022-11-15T10:19:23;39.80;;;25.33;;
25962;SDS011;13760;52.588;13.406;2022-11-15T10:24:43;40.78;;;25.02;;
25962;SDS011;13760;52.588;13.406;2022-11-15T10:27:11;37.33;;;24.52;;
25962;SDS011;13760;52.588;13.406;2022-11-15T10:29:44;35.55;;;24.30;;
25962;SDS011;13760;52.588;13.406;2022-11-15T10:32:13;34.35;;;23.05;;
25962;SDS011;13760;52.588;13.406;2022-11-15T10:34:40;34.75;;;23.75;;
25962;SDS011;13760;52.588;13.406;2022-11-15T10:37:06;35.78;;;22.75;;
25962;SDS011;13760;52.588;13.406;2022-11-15T10:39:31;35.50;;;23.73;;
25962;SDS011;13760;52.588;13.406;2022-11-15T10:41:58;34.95;;;24.83;;
25962;SDS011;13760;52.588;13.406;2022-11-15T10:44:50;34.00;;;23.90;;
25962;SDS011;13760;52.588;13.406;2022-11-15T10:47:22;35.97;;;23.80;;
25962;SDS011;13760;52.588;13.406;2022-11-15T10:52:22;31.40;;;22.02;;
25962;SDS011;13760;52.588;13.406;2022-11-15T10:57:25;40.33;;;25.00;;
25962;SDS011;13760;52.588;13.406;2022-11-15T10:59:57;36.65;;;25.60;;
25962;SDS011;13760;52.588;13.406;2022-11-15T11:02:38;42.42;;;26.05;;
25962;SDS011;13760;52.588;13.406;2022-11-15T11:05:33;39.58;;;25.77;;
25962;SDS011;13760;52.588;13.406;2022-11-15T11:08:09;35.05;;;24.42;;
25962;SDS011;13760;52.588;13.406;2022-11-15T11:13:30;36.15;;;25.83;;
25962;SDS011;13760;52.588;13.406;2022-11-15T11:16:14;38.45;;;26.00;;
25962;SDS011;13760;52.588;13.406;2022-11-15T11:21:29;34.13;;;23.55;;
25962;SDS011;13760;52.588;13.406;2022-11-15T11:30:03;31.95;;;22.05;;
25962;SDS011;13760;52.588;13.406;2022-11-15T11:35:30;33.20;;;23.63;;
25962;SDS011;13760;52.588;13.406;2022-11-15T11:38:15;33.70;;;22.77;;
25962;SDS011;13760;52.588;13.406;2022-11-15T11:43:37;31.23;;;22.67;;
25962;SDS011;13760;52.588;13.406;2022-11-15T11:49:09;30.25;;;21.38;;
25962;SDS011;13760;52.588;13.406;2022-11-15T11:51:45;31.02;;;22.27;;
25962;SDS011;13760;52.588;13.406;2022-11-15T11:54:20;26.90;;;20.38;;
25962;SDS011;13760;52.588;13.406;2022-11-15T11:57:12;31.75;;;21.17;;
25962;SDS011;13760;52.588;13.406;2022-11-15T11:59:58;31.15;;;20.80;;
25962;SDS011;13760;52.588;13.406;2022-11-15T12:02:40;25.67;;;20.30;;
25962;SDS011;13760;52.588;13.406;2022-11-15T12:05:23;33.72;;;20.77;;
25962;SDS011;13760;52.588;13.406;2022-11-15T12:14:47;28.00;;;19.42;;
25962;SDS011;13760;52.588;13.406;2022-11-15T12:17:17;27.77;;;18.55;;
25962;SDS011;13760;52.588;13.406;2022-11-15T12:19:49;26.60;;;19.10;;
25962;SDS011;13760;52.588;13.406;2022-11-15T12:22:19;28.15;;;18.40;;
25962;SDS011;13760;52.588;13.406;2022-11-15T12:27:20;27.05;;;18.45;;
25962;SDS011;13760;52.588;13.406;2022-11-15T12:30:03;27.40;;;19.15;;
25962;SDS011;13760;52.588;13.406;2022-11-15T12:32:35;24.67;;;18.38;;
25962;SDS011;13760;52.588;13.406;2022-11-15T12:35:04;25.83;;;19.30;;
25962;SDS011;13760;52.588;13.406;2022-11-15T12:37:47;23.60;;;18.13;;
25962;SDS011;13760;52.588;13.406;2022-11-15T12:40:21;22.60;;;17.58;;
25962;SDS011;13760;52.588;13.406;2022-11-15T12:45:38;23.05;;;17.38;;
25962;SDS011;13760;52.588;13.406;2022-11-15T13:01:09;23.35;;;17.50;;
25962;SDS011;13760;52.588;13.406;2022-11-15T13:03:35;29.15;;;17.15;;
25962;SDS011;13760;52.588;13.406;2022-11-15T13:11:57;29.05;;;19.00;;
25962;SDS011;13760;52.588;13.406;2022-11-15T13:14:39;27.88;;;17.75;;
25962;SDS011;13760;52.588;13.406;2022-11-15T13:19:41;27.70;;;18.85;;
25962;SDS011;13760;52.588;13.406;2022-11-15T13:22:10;28.60;;;17.88;;
25962;SDS011;13760;52.588;13.406;2022-11-15T13:24:54;24.08;;;17.15;;
25962;SDS011;13760;52.588;13.406;2022-11-15T13:27:20;27.60;;;17.95;;
25962;SDS011;13760;52.588;13.406;2022-11-15T13:29:46;25.50;;;17.45;;
25962;SDS011;13760;52.588;13.406;2022-11-15T13:32:12;23.75;;;16.83;;
25962;SDS011;13760;52.588;13.406;2022-11-15T13:34:43;27.13;;;17.95;;
25962;SDS011;13760;52.588;13.406;2022-11-15T13:37:32;25.15;;;17.83;;
25962;SDS011;13760;52.588;13.406;2022-11-15T13:40:09;28.35;;;18.23;;
25962;SDS011;13760;52.588;13.406;2022-11-15T13:42:48;27.48;;;18.25;;
25962;SDS011;13760;52.588;13.406;2022-11-15T13:45:15;29.55;;;19.85;;
25962;SDS011;13760;52.588;13.406;2022-11-15T13:47:41;32.15;;;19.88;;
25962;SDS011;13760;52.588;13.406;2022-11-15T13:50:11;31.92;;;18.55;;
25962;SDS011;13760;52.588;13.406;2022-11-15T13:52:37;24.47;;;18.23;;
25962;SDS011;13760;52.588;13.406;2022-11-15T13:55:12;26.25;;;19.60;;
25962;SDS011;13760;52.588;13.406;2022-11-15T13:57:41;31.75;;;19.92;;
25962;SDS011;13760;52.588;13.406;2022-11-15T14:05:45;31.27;;;20.75;;
25962;SDS011;13760;52.588;13.406;2022-11-15T14:08:26;29.20;;;21.45;;
25962;SDS011;13760;52.588;13.406;2022-11-15T14:11:05;25.90;;;19.10;;
25962;SDS011;13760;52.588;13.406;2022-11-15T14:13:41;26.23;;;19.83;;
25962;SDS011;13760;52.588;13.406;2022-11-15T14:16:31;24.80;;;18.52;;
25962;SDS011;13760;52.588;13.406;2022-11-15T14:19:00;29.33;;;19.17;;
25962;SDS011;13760;52.588;13.406;2022-11-15T14:21:26;29.60;;;19.75;;
25962;SDS011;13760;52.588;13.406;2022-11-15T14:23:51;27.80;;;19.17;;
25962;SDS011;13760;52.588;13.406;2022-11-15T14:26:33;27.17;;;19.02;;
25962;SDS011;13760;52.588;13.406;2022-11-15T14:31:51;30.00;;;20.10;;
25962;SDS011;13760;52.588;13.406;2022-11-15T14:34:17;27.23;;;19.38;;
25962;SDS011;13760;52.588;13.406;2022-11-15T14:36:43;30.48;;;19.45;;
25962;SDS011;13760;52.588;13.406;2022-11-15T14:39:09;29.35;;;19.52;;
25962;SDS011;13760;52.588;13.406;2022-11-15T14:41:35;28.70;;;19.90;;
25962;SDS011;13760;52.588;13.406;2022-11-15T14:44:04;28.27;;;18.67;;
25962;SDS011;13760;52.588;13.406;2022-11-15T14:46:30;27.80;;;19.90;;
25962;SDS011;13760;52.588;13.406;2022-11-15T14:48:56;30.67;;;21.02;;
25962;SDS011;13760;52.588;13.406;2022-11-15T14:51:22;31.23;;;21.42;;
25962;SDS011;13760;52.588;13.406;2022-11-15T14:53:47;33.33;;;21.48;;
25962;SDS011;13760;52.588;13.406;2022-11-15T14:56:13;38.17;;;22.40;;
25962;SDS011;13760;52.588;13.406;2022-11-15T14:58:40;29.52;;;21.23;;
25962;SDS011;13760;52.588;13.406;2022-11-15T15:01:10;28.40;;;20.90;;
25962;SDS011;13760;52.588;13.406;2022-11-15T15:03:39;33.97;;;21.00;;
25962;SDS011;13760;52.588;13.406;2022-11-15T15:06:04;31.92;;;22.65;;
25962;SDS011;13760;52.588;13.406;2022-11-15T15:08:30;29.50;;;21.20;;
25962;SDS011;13760;52.588;13.406;2022-11-15T15:10:55;35.40;;;21.77;;
25962;SDS011;13760;52.588;13.406;2022-11-15T15:13:22;31.38;;;21.95;;
25962;SDS011;13760;52.588;13.406;2022-11-15T15:15:49;31.98;;;21.75;;
25962;SDS011;13760;52.588;13.406;2022-11-15T15:18:16;39.40;;;24.38;;
25962;SDS011;13760;52.588;13.406;2022-11-15T15:20:43;32.10;;;22.50;;
25962;SDS011;13760;52.588;13.406;2022-11-15T15:23:14;34.72;;;24.10;;
25962;SDS011;13760;52.588;13.406;2022-11-15T15:25:41;34.05;;;23.50;;
25962;SDS011;13760;52.588;13.406;2022-11-15T15:28:07;33.75;;;23.30;;
25962;SDS011;13760;52.588;13.406;2022-11-15T15:30:32;34.00;;;23.70;;
25962;SDS011;13760;52.588;13.406;2022-11-15T15:32:58;32.88;;;22.65;;
25962;SDS011;13760;52.588;13.406;2022-11-15T15:35:23;34.33;;;23.70;;
25962;SDS011;13760;52.588;13.406;2022-11-15T15:37:54;34.70;;;23.55;;
25962;SDS011;13760;52.588;13.406;2022-11-15T15:40:20;38.13;;;24.65;;
25962;SDS011;13760;52.588;13.406;2022-11-15T15:42:47;37.60;;;24.00;;
25962;SDS011;13760;52.588;13.406;2022-11-15T15:45:13;40.75;;;23.90;;
25962;SDS011;13760;52.588;13.406;2022-11-15T15:47:39;38.35;;;25.67;;
25962;SDS011;13760;52.588;13.406;2022-11-15T15:50:12;33.97;;;23.05;;
25962;SDS011;13760;52.588;13.406;2022-11-15T15:52:46;37.95;;;27.08;;
25962;SDS011;13760;52.588;13.406;2022-11-15T15:55:12;37.45;;;25.20;;
25962;SDS011;13760;52.588;13.406;2022-11-15T15:57:38;39.42;;;26.42;;
25962;SDS011;13760;52.588;13.406;2022-11-15T16:00:03;44.75;;;26.95;;
25962;SDS011;13760;52.588;13.406;2022-11-15T16:02:30;38.65;;;25.95;;
25962;SDS011;13760;52.588;13.406;2022-11-15T16:04:55;42.90;;;25.88;;